PWSweather.com
Personal Weather Stations
Station Observations
ANTHEMNP
Anthem North Parkside, Anthem, AZ 85086

Anthem North ParksideAnthem, AZ 85086

Lat: 33.876464, Lon: -112.13861199999997

Elevation: 1930

Station Type: Davis Vantage Vue with Pro 2 console

http://www.azjerry.com/ANPW/wxindex.php

High Low Average
Temperature 71.9°F22.2°C 48.6°F9.2°C 57.8°F14.3°C
Dew Point 37.0°F2.8°C 18.0°F-7.8°C 24.5°F-4.2°C
Winds 12.2 mph 19.6 kmh Calm Calm 5.0 mph SE8.0 kmh SE
Wind Gusts 21.0 mph33.8 kmh -- 10.0 mph16.1 kmh
Humidity 65% 16% 29%
Pressure 30.38 in1028.8 mb 30.24 in1024.0 mb -
Precipitation 0.00 in0.0 mm - -
Hour Temp Dew Point Humidity Winds Wind Gusts Pressure Precip Precip Rate Daily Precip Total
12:00 AM 48.7°F9.3°C 37.0°F2.8°C 65% 3.9 mph N6.3 kmh N 8.0 mph12.9 kmh 30.29 in1025.7 mb 0.00 in0.0 mm 0.00 in0.0 mm 0.00 in0.0 mm
12:10 AM 49.2°F9.6°C 37.0°F2.8°C 64% 4.8 mph NNE7.7 kmh NNE 8.0 mph12.9 kmh 30.30 in1026.1 mb 0.00 in0.0 mm 0.00 in0.0 mm 0.00 in0.0 mm
12:20 AM 49.7°F9.8°C 37.0°F2.8°C 62% 5.5 mph NNE8.9 kmh NNE 10.0 mph16.1 kmh 30.29 in1025.7 mb 0.00 in0.0 mm 0.00 in0.0 mm 0.00 in0.0 mm
12:30 AM 49.4°F9.7°C 37.0°F2.8°C 63% 2.3 mph N3.7 kmh N 7.0 mph11.3 kmh 30.29 in1025.7 mb 0.00 in0.0 mm 0.00 in0.0 mm 0.00 in0.0 mm
12:40 AM 49.2°F9.6°C 37.0°F2.8°C 63% 0.9 mph NNE1.4 kmh NNE 4.0 mph6.4 kmh 30.29 in1025.7 mb 0.00 in0.0 mm 0.00 in0.0 mm 0.00 in0.0 mm
12:50 AM 49.1°F9.5°C 37.0°F2.8°C 63% 2.3 mph NNW3.7 kmh NNW 4.0 mph6.4 kmh 30.29 in1025.7 mb 0.00 in0.0 mm 0.00 in0.0 mm 0.00 in0.0 mm
01:00 AM 48.6°F9.2°C 36.0°F2.2°C 61% 2.0 mph NNE3.2 kmh NNE 5.0 mph8.0 kmh 30.29 in1025.7 mb 0.00 in0.0 mm 0.00 in0.0 mm 0.00 in0.0 mm
01:10 AM 48.7°F9.3°C 34.0°F1.1°C 57% 3.2 mph NE5.1 kmh NE 7.0 mph11.3 kmh 30.29 in1025.7 mb 0.00 in0.0 mm 0.00 in0.0 mm 0.00 in0.0 mm
01:20 AM 50.5°F10.3°C 32.0°F0.0°C 49% 4.3 mph N6.9 kmh N 9.0 mph14.5 kmh 30.29 in1025.7 mb 0.00 in0.0 mm 0.00 in0.0 mm 0.00 in0.0 mm
01:30 AM 51.8°F11.0°C 28.0°F-2.2°C 40% 3.0 mph N4.8 kmh N 9.0 mph14.5 kmh 30.30 in1026.1 mb 0.00 in0.0 mm 0.00 in0.0 mm 0.00 in0.0 mm
01:40 AM 51.5°F10.8°C 29.0°F-1.7°C 42% 6.4 mph N10.3 kmh N 14.0 mph22.5 kmh 30.29 in1025.7 mb 0.00 in0.0 mm 0.00 in0.0 mm 0.00 in0.0 mm
01:50 AM 50.8°F10.4°C 28.0°F-2.2°C 42% 5.6 mph NNE9.0 kmh NNE 10.0 mph16.1 kmh 30.30 in1026.1 mb 0.00 in0.0 mm 0.00 in0.0 mm 0.00 in0.0 mm
02:00 AM 50.6°F10.3°C 27.0°F-2.8°C 41% 5.8 mph NE9.3 kmh NE 15.0 mph24.1 kmh 30.30 in1026.1 mb 0.00 in0.0 mm 0.00 in0.0 mm 0.00 in0.0 mm
02:10 AM 51.0°F10.6°C 27.0°F-2.8°C 39% 7.6 mph N12.2 kmh N 14.0 mph22.5 kmh 30.30 in1026.1 mb 0.00 in0.0 mm 0.00 in0.0 mm 0.00 in0.0 mm
02:20 AM 50.5°F10.3°C 26.0°F-3.3°C 39% 7.4 mph NNE11.9 kmh NNE 14.0 mph22.5 kmh 30.30 in1026.1 mb 0.00 in0.0 mm 0.00 in0.0 mm 0.00 in0.0 mm
02:30 AM 50.5°F10.3°C 26.0°F-3.3°C 39% 8.0 mph NNE12.9 kmh NNE 14.0 mph22.5 kmh 30.30 in1026.1 mb 0.00 in0.0 mm 0.00 in0.0 mm 0.00 in0.0 mm
02:40 AM 50.7°F10.4°C 26.0°F-3.3°C 38% 8.7 mph NE14.0 kmh NE 17.0 mph27.4 kmh 30.30 in1026.1 mb 0.00 in0.0 mm 0.00 in0.0 mm 0.00 in0.0 mm
02:50 AM 50.5°F10.3°C 25.0°F-3.9°C 37% 8.7 mph NNW14.0 kmh NNW 15.0 mph24.1 kmh 30.30 in1026.1 mb 0.00 in0.0 mm 0.00 in0.0 mm 0.00 in0.0 mm
03:00 AM 50.5°F10.3°C 25.0°F-3.9°C 37% 8.7 mph N14.0 kmh N 15.0 mph24.1 kmh 30.30 in1026.1 mb 0.00 in0.0 mm 0.00 in0.0 mm 0.00 in0.0 mm
03:10 AM 50.5°F10.3°C 25.0°F-3.9°C 37% 7.6 mph NE12.2 kmh NE 12.0 mph19.3 kmh 30.30 in1026.1 mb 0.00 in0.0 mm 0.00 in0.0 mm 0.00 in0.0 mm
03:20 AM 51.0°F10.6°C 25.0°F-3.9°C 37% 8.3 mph NNE13.4 kmh NNE 14.0 mph22.5 kmh 30.30 in1026.1 mb 0.00 in0.0 mm 0.00 in0.0 mm 0.00 in0.0 mm
03:30 AM 50.8°F10.4°C 25.0°F-3.9°C 37% 8.4 mph NNE13.5 kmh NNE 15.0 mph24.1 kmh 30.30 in1026.1 mb 0.00 in0.0 mm 0.00 in0.0 mm 0.00 in0.0 mm
03:40 AM 50.8°F10.4°C 25.0°F-3.9°C 37% 8.5 mph NNE13.7 kmh NNE 15.0 mph24.1 kmh 30.30 in1026.1 mb 0.00 in0.0 mm 0.00 in0.0 mm 0.00 in0.0 mm
03:50 AM 50.5°F10.3°C 24.0°F-4.4°C 36% 8.2 mph NW13.2 kmh NW 14.0 mph22.5 kmh 30.31 in1026.4 mb 0.00 in0.0 mm 0.00 in0.0 mm 0.00 in0.0 mm
04:00 AM 51.0°F10.6°C 24.0°F-4.4°C 35% 9.8 mph N15.8 kmh N 15.0 mph24.1 kmh 30.30 in1026.1 mb 0.00 in0.0 mm 0.00 in0.0 mm 0.00 in0.0 mm
04:10 AM 50.5°F10.3°C 24.0°F-4.4°C 36% 8.7 mph NE14.0 kmh NE 18.0 mph29.0 kmh 30.30 in1026.1 mb 0.00 in0.0 mm 0.00 in0.0 mm 0.00 in0.0 mm
04:20 AM 50.2°F10.1°C 24.0°F-4.4°C 36% 8.1 mph NNE13.0 kmh NNE 15.0 mph24.1 kmh 30.29 in1025.7 mb 0.00 in0.0 mm 0.00 in0.0 mm 0.00 in0.0 mm
04:30 AM 50.2°F10.1°C 24.0°F-4.4°C 36% 8.6 mph N13.8 kmh N 17.0 mph27.4 kmh 30.30 in1026.1 mb 0.00 in0.0 mm 0.00 in0.0 mm 0.00 in0.0 mm
04:40 AM 50.3°F10.2°C 23.0°F-5.0°C 35% 9.6 mph N15.4 kmh N 17.0 mph27.4 kmh 30.29 in1025.7 mb 0.00 in0.0 mm 0.00 in0.0 mm 0.00 in0.0 mm
04:50 AM 51.4°F10.8°C 22.0°F-5.6°C 32% 10.5 mph N16.9 kmh N 18.0 mph29.0 kmh 30.28 in1025.4 mb 0.00 in0.0 mm 0.00 in0.0 mm 0.00 in0.0 mm
05:00 AM 51.5°F10.8°C 21.0°F-6.1°C 30% 10.4 mph N16.7 kmh N 18.0 mph29.0 kmh 30.28 in1025.4 mb 0.00 in0.0 mm 0.00 in0.0 mm 0.00 in0.0 mm
05:10 AM 51.2°F10.7°C 21.0°F-6.1°C 31% 10.5 mph N16.9 kmh N 17.0 mph27.4 kmh 30.28 in1025.4 mb 0.00 in0.0 mm 0.00 in0.0 mm 0.00 in0.0 mm
05:20 AM 50.7°F10.4°C 21.0°F-6.1°C 31% 9.7 mph N15.6 kmh N 18.0 mph29.0 kmh 30.29 in1025.7 mb 0.00 in0.0 mm 0.00 in0.0 mm 0.00 in0.0 mm
05:30 AM 51.2°F10.7°C 20.0°F-6.7°C 29% 11.2 mph NNE18.0 kmh NNE 20.0 mph32.2 kmh 30.28 in1025.4 mb 0.00 in0.0 mm 0.00 in0.0 mm 0.00 in0.0 mm
05:40 AM 51.3°F10.7°C 20.0°F-6.7°C 29% 12.2 mph NE19.6 kmh NE 19.0 mph30.6 kmh 30.29 in1025.7 mb 0.00 in0.0 mm 0.00 in0.0 mm 0.00 in0.0 mm
05:50 AM 50.7°F10.4°C 20.0°F-6.7°C 30% 9.7 mph S15.6 kmh S 18.0 mph29.0 kmh 30.29 in1025.7 mb 0.00 in0.0 mm 0.00 in0.0 mm 0.00 in0.0 mm
06:00 AM 50.9°F10.5°C 20.0°F-6.7°C 29% 9.8 mph N15.8 kmh N 18.0 mph29.0 kmh 30.29 in1025.7 mb 0.00 in0.0 mm 0.00 in0.0 mm 0.00 in0.0 mm
06:10 AM 50.8°F10.4°C 19.0°F-7.2°C 29% 11.0 mph NE17.7 kmh NE 19.0 mph30.6 kmh 30.30 in1026.1 mb 0.00 in0.0 mm 0.00 in0.0 mm 0.00 in0.0 mm
06:20 AM 50.1°F10.1°C 20.0°F-6.7°C 31% 10.1 mph NNE16.3 kmh NNE 18.0 mph29.0 kmh 30.30 in1026.1 mb 0.00 in0.0 mm 0.00 in0.0 mm 0.00 in0.0 mm
06:30 AM 50.7°F10.4°C 19.0°F-7.2°C 29% 11.4 mph NE18.3 kmh NE 19.0 mph30.6 kmh 30.30 in1026.1 mb 0.00 in0.0 mm 0.00 in0.0 mm 0.00 in0.0 mm
06:40 AM 50.8°F10.4°C 20.0°F-6.7°C 30% 11.1 mph NNE17.9 kmh NNE 21.0 mph33.8 kmh 30.30 in1026.1 mb 0.00 in0.0 mm 0.00 in0.0 mm 0.00 in0.0 mm
06:50 AM 51.0°F10.6°C 20.0°F-6.7°C 29% 10.7 mph NE17.2 kmh NE 18.0 mph29.0 kmh 30.30 in1026.1 mb 0.00 in0.0 mm 0.00 in0.0 mm 0.00 in0.0 mm
07:00 AM 51.1°F10.6°C 19.0°F-7.2°C 28% 10.7 mph NW17.2 kmh NW 20.0 mph32.2 kmh 30.30 in1026.1 mb 0.00 in0.0 mm 0.00 in0.0 mm 0.00 in0.0 mm
07:10 AM 50.9°F10.5°C 20.0°F-6.7°C 29% 10.3 mph N16.6 kmh N 19.0 mph30.6 kmh 30.30 in1026.1 mb 0.00 in0.0 mm 0.00 in0.0 mm 0.00 in0.0 mm
07:20 AM 51.2°F10.7°C 19.0°F-7.2°C 28% 11.0 mph NNE17.7 kmh NNE 19.0 mph30.6 kmh 30.30 in1026.1 mb 0.00 in0.0 mm 0.00 in0.0 mm 0.00 in0.0 mm
07:30 AM 51.1°F10.6°C 19.0°F-7.2°C 28% 10.1 mph N16.3 kmh N 21.0 mph33.8 kmh 30.31 in1026.4 mb 0.00 in0.0 mm 0.00 in0.0 mm 0.00 in0.0 mm
07:40 AM 50.7°F10.4°C 19.0°F-7.2°C 29% 10.7 mph N17.2 kmh N 17.0 mph27.4 kmh 30.31 in1026.4 mb 0.00 in0.0 mm 0.00 in0.0 mm 0.00 in0.0 mm
07:50 AM 50.0°F10.0°C 20.0°F-6.7°C 30% 9.9 mph N15.9 kmh N 16.0 mph25.7 kmh 30.31 in1026.4 mb 0.00 in0.0 mm 0.00 in0.0 mm 0.00 in0.0 mm
08:00 AM 49.8°F9.9°C 20.0°F-6.7°C 31% 8.9 mph NE14.3 kmh NE 16.0 mph25.7 kmh 30.31 in1026.4 mb 0.00 in0.0 mm 0.00 in0.0 mm 0.00 in0.0 mm
08:10 AM 50.1°F10.1°C 20.0°F-6.7°C 31% 9.5 mph NNW15.3 kmh NNW 19.0 mph30.6 kmh 30.32 in1026.8 mb 0.00 in0.0 mm 0.00 in0.0 mm 0.00 in0.0 mm
08:20 AM 50.3°F10.2°C 21.0°F-6.1°C 31% 9.0 mph NE14.5 kmh NE 15.0 mph24.1 kmh 30.32 in1026.8 mb 0.00 in0.0 mm 0.00 in0.0 mm 0.00 in0.0 mm
08:30 AM 50.9°F10.5°C 20.0°F-6.7°C 30% 10.7 mph N17.2 kmh N 19.0 mph30.6 kmh 30.32 in1026.8 mb 0.00 in0.0 mm 0.00 in0.0 mm 0.00 in0.0 mm
08:40 AM 51.3°F10.7°C 20.0°F-6.7°C 29% 10.4 mph N16.7 kmh N 18.0 mph29.0 kmh 30.33 in1027.1 mb 0.00 in0.0 mm 0.00 in0.0 mm 0.00 in0.0 mm
08:50 AM 51.8°F11.0°C 19.0°F-7.2°C 28% 11.0 mph N17.7 kmh N 19.0 mph30.6 kmh 30.33 in1027.1 mb 0.00 in0.0 mm 0.00 in0.0 mm 0.00 in0.0 mm
09:00 AM 52.7°F11.5°C 20.0°F-6.7°C 28% 9.9 mph N15.9 kmh N 17.0 mph27.4 kmh 30.33 in1027.1 mb 0.00 in0.0 mm 0.00 in0.0 mm 0.00 in0.0 mm
09:10 AM 53.8°F12.1°C 20.0°F-6.7°C 27% 9.0 mph NNE14.5 kmh NNE 17.0 mph27.4 kmh 30.34 in1027.4 mb 0.00 in0.0 mm 0.00 in0.0 mm 0.00 in0.0 mm
09:20 AM 54.8°F12.7°C 18.0°F-7.8°C 24% 9.9 mph NNE15.9 kmh NNE 19.0 mph30.6 kmh 30.34 in1027.4 mb 0.00 in0.0 mm 0.00 in0.0 mm 0.00 in0.0 mm
09:30 AM 55.4°F13.0°C 20.0°F-6.7°C 25% 10.1 mph NNE16.3 kmh NNE 17.0 mph27.4 kmh 30.34 in1027.4 mb 0.00 in0.0 mm 0.00 in0.0 mm 0.00 in0.0 mm
09:40 AM 55.4°F13.0°C 22.0°F-5.6°C 27% 8.0 mph NNW12.9 kmh NNW 13.0 mph20.9 kmh 30.35 in1027.8 mb 0.00 in0.0 mm 0.00 in0.0 mm 0.00 in0.0 mm
09:50 AM 56.1°F13.4°C 21.0°F-6.1°C 25% 7.0 mph N11.3 kmh N 15.0 mph24.1 kmh 30.36 in1028.1 mb 0.00 in0.0 mm 0.00 in0.0 mm 0.00 in0.0 mm
10:00 AM 56.6°F13.7°C 21.0°F-6.1°C 25% 6.5 mph N10.5 kmh N 11.0 mph17.7 kmh 30.37 in1028.4 mb 0.00 in0.0 mm 0.00 in0.0 mm 0.00 in0.0 mm
10:10 AM 57.0°F13.9°C 20.0°F-6.7°C 24% 4.9 mph NNW7.9 kmh NNW 11.0 mph17.7 kmh 30.37 in1028.4 mb 0.00 in0.0 mm 0.00 in0.0 mm 0.00 in0.0 mm
10:20 AM 57.4°F14.1°C 22.0°F-5.6°C 25% 4.5 mph ENE7.2 kmh ENE 10.0 mph16.1 kmh 30.38 in1028.8 mb 0.00 in0.0 mm 0.00 in0.0 mm 0.00 in0.0 mm
10:30 AM 57.8°F14.3°C 20.0°F-6.7°C 23% 5.0 mph N8.0 kmh N 11.0 mph17.7 kmh 30.38 in1028.8 mb 0.00 in0.0 mm 0.00 in0.0 mm 0.00 in0.0 mm
10:40 AM 58.5°F14.7°C 22.0°F-5.6°C 24% 6.2 mph NW10.0 kmh NW 11.0 mph17.7 kmh 30.38 in1028.8 mb 0.00 in0.0 mm 0.00 in0.0 mm 0.00 in0.0 mm
10:50 AM 58.9°F14.9°C 21.0°F-6.1°C 23% 7.3 mph N11.7 kmh N 13.0 mph20.9 kmh 30.38 in1028.8 mb 0.00 in0.0 mm 0.00 in0.0 mm 0.00 in0.0 mm
11:00 AM 59.5°F15.3°C 21.0°F-6.1°C 23% 6.7 mph NE10.8 kmh NE 14.0 mph22.5 kmh 30.38 in1028.8 mb 0.00 in0.0 mm 0.00 in0.0 mm 0.00 in0.0 mm
11:10 AM 60.1°F15.6°C 21.0°F-6.1°C 22% 6.2 mph NNE10.0 kmh NNE 12.0 mph19.3 kmh 30.37 in1028.4 mb 0.00 in0.0 mm 0.00 in0.0 mm 0.00 in0.0 mm
11:20 AM 60.5°F15.8°C 21.0°F-6.1°C 22% 7.8 mph NNE12.6 kmh NNE 13.0 mph20.9 kmh 30.37 in1028.4 mb 0.00 in0.0 mm 0.00 in0.0 mm 0.00 in0.0 mm
11:30 AM 60.9°F16.1°C 22.0°F-5.6°C 22% 7.5 mph NNE12.1 kmh NNE 13.0 mph20.9 kmh 30.37 in1028.4 mb 0.00 in0.0 mm 0.00 in0.0 mm 0.00 in0.0 mm
11:40 AM 61.5°F16.4°C 23.0°F-5.0°C 23% 7.8 mph NNE12.6 kmh NNE 16.0 mph25.7 kmh 30.36 in1028.1 mb 0.00 in0.0 mm 0.00 in0.0 mm 0.00 in0.0 mm
11:50 AM 62.3°F16.8°C 22.0°F-5.6°C 21% 5.3 mph NNW8.5 kmh NNW 11.0 mph17.7 kmh 30.36 in1028.1 mb 0.00 in0.0 mm 0.00 in0.0 mm 0.00 in0.0 mm
12:00 PM 62.8°F17.1°C 21.0°F-6.1°C 20% 5.1 mph N8.2 kmh N 9.0 mph14.5 kmh 30.34 in1027.4 mb 0.00 in0.0 mm 0.00 in0.0 mm 0.00 in0.0 mm
12:10 PM 63.4°F17.4°C 22.0°F-5.6°C 20% 3.8 mph N6.1 kmh N 9.0 mph14.5 kmh 30.33 in1027.1 mb 0.00 in0.0 mm 0.00 in0.0 mm 0.00 in0.0 mm
12:20 PM 64.0°F17.8°C 22.0°F-5.6°C 20% 4.0 mph N6.4 kmh N 8.0 mph12.9 kmh 30.33 in1027.1 mb 0.00 in0.0 mm 0.00 in0.0 mm 0.00 in0.0 mm
12:30 PM 64.4°F18.0°C 21.0°F-6.1°C 19% 2.8 mph NE4.5 kmh NE 7.0 mph11.3 kmh 30.32 in1026.8 mb 0.00 in0.0 mm 0.00 in0.0 mm 0.00 in0.0 mm
12:40 PM 64.9°F18.3°C 22.0°F-5.6°C 19% 2.7 mph NE4.3 kmh NE 6.0 mph9.7 kmh 30.32 in1026.8 mb 0.00 in0.0 mm 0.00 in0.0 mm 0.00 in0.0 mm
12:50 PM 64.9°F18.3°C 20.0°F-6.7°C 18% 2.7 mph N4.3 kmh N 5.0 mph8.0 kmh 30.31 in1026.4 mb 0.00 in0.0 mm 0.00 in0.0 mm 0.00 in0.0 mm
01:00 PM 65.4°F18.6°C 21.0°F-6.1°C 18% 2.2 mph N3.5 kmh N 6.0 mph9.7 kmh 30.31 in1026.4 mb 0.00 in0.0 mm 0.00 in0.0 mm 0.00 in0.0 mm
01:10 PM 65.5°F18.6°C 18.0°F-7.8°C 16% 2.2 mph N3.5 kmh N 6.0 mph9.7 kmh 30.30 in1026.1 mb 0.00 in0.0 mm 0.00 in0.0 mm 0.00 in0.0 mm
01:20 PM 66.8°F19.3°C 20.0°F-6.7°C 17% 0.7 mph SW1.1 kmh SW 2.0 mph3.2 kmh 30.30 in1026.1 mb 0.00 in0.0 mm 0.00 in0.0 mm 0.00 in0.0 mm
01:30 PM 67.8°F19.9°C 20.0°F-6.7°C 16% 0.6 mph SW1.0 kmh SW 2.0 mph3.2 kmh 30.29 in1025.7 mb 0.00 in0.0 mm 0.00 in0.0 mm 0.00 in0.0 mm
01:40 PM 68.4°F20.2°C 23.0°F-5.0°C 18% 1.3 mph SSW2.1 kmh SSW 5.0 mph8.0 kmh 30.29 in1025.7 mb 0.00 in0.0 mm 0.00 in0.0 mm 0.00 in0.0 mm
01:50 PM 68.5°F20.3°C 25.0°F-3.9°C 19% 1.7 mph N2.7 kmh N 6.0 mph9.7 kmh 30.28 in1025.4 mb 0.00 in0.0 mm 0.00 in0.0 mm 0.00 in0.0 mm
02:00 PM 69.3°F20.7°C 24.0°F-4.4°C 18% 0.8 mph NNE1.3 kmh NNE 5.0 mph8.0 kmh 30.28 in1025.4 mb 0.00 in0.0 mm 0.00 in0.0 mm 0.00 in0.0 mm
02:10 PM 69.3°F20.7°C 25.0°F-3.9°C 19% 1.2 mph SE1.9 kmh SE 4.0 mph6.4 kmh 30.28 in1025.4 mb 0.00 in0.0 mm 0.00 in0.0 mm 0.00 in0.0 mm
02:20 PM 69.9°F21.1°C 26.0°F-3.3°C 19% 1.4 mph ESE2.3 kmh ESE 5.0 mph8.0 kmh 30.27 in1025.1 mb 0.00 in0.0 mm 0.00 in0.0 mm 0.00 in0.0 mm
02:30 PM 69.3°F20.7°C 25.0°F-3.9°C 19% 1.4 mph SW2.3 kmh SW 4.0 mph6.4 kmh 30.27 in1025.1 mb 0.00 in0.0 mm 0.00 in0.0 mm 0.00 in0.0 mm
02:40 PM 69.6°F20.9°C 25.0°F-3.9°C 19% 1.2 mph WSW1.9 kmh WSW 5.0 mph8.0 kmh 30.27 in1025.1 mb 0.00 in0.0 mm 0.00 in0.0 mm 0.00 in0.0 mm
02:50 PM 69.8°F21.0°C 24.0°F-4.4°C 18% 0.9 mph NE1.4 kmh NE 3.0 mph4.8 kmh 30.26 in1024.7 mb 0.00 in0.0 mm 0.00 in0.0 mm 0.00 in0.0 mm
03:00 PM 69.1°F20.6°C 26.0°F-3.3°C 20% 0.8 mph W1.3 kmh W 3.0 mph4.8 kmh 30.26 in1024.7 mb 0.00 in0.0 mm 0.00 in0.0 mm 0.00 in0.0 mm
03:10 PM 69.5°F20.8°C 24.0°F-4.4°C 18% 0.4 mph N0.6 kmh N 2.0 mph3.2 kmh 30.26 in1024.7 mb 0.00 in0.0 mm 0.00 in0.0 mm 0.00 in0.0 mm
03:20 PM 70.3°F21.3°C 27.0°F-2.8°C 20% 0.9 mph SW1.4 kmh SW 4.0 mph6.4 kmh 30.26 in1024.7 mb 0.00 in0.0 mm 0.00 in0.0 mm 0.00 in0.0 mm
03:30 PM 70.3°F21.3°C 26.0°F-3.3°C 19% 0.3 mph WNW0.5 kmh WNW 2.0 mph3.2 kmh 30.25 in1024.4 mb 0.00 in0.0 mm 0.00 in0.0 mm 0.00 in0.0 mm
03:40 PM 71.9°F22.2°C 26.0°F-3.3°C 18% 0.1 mph S0.2 kmh S 2.0 mph3.2 kmh 30.25 in1024.4 mb 0.00 in0.0 mm 0.00 in0.0 mm 0.00 in0.0 mm
03:50 PM 70.8°F21.6°C 28.0°F-2.2°C 20% 0.7 mph W1.1 kmh W 3.0 mph4.8 kmh 30.25 in1024.4 mb 0.00 in0.0 mm 0.00 in0.0 mm 0.00 in0.0 mm
04:00 PM 70.5°F21.4°C 27.0°F-2.8°C 20% 0.7 mph SSW1.1 kmh SSW 4.0 mph6.4 kmh 30.24 in1024.0 mb 0.00 in0.0 mm 0.00 in0.0 mm 0.00 in0.0 mm
04:10 PM 69.4°F20.8°C 28.0°F-2.2°C 21% 1.0 mph WNW1.6 kmh WNW 2.0 mph3.2 kmh 30.24 in1024.0 mb 0.00 in0.0 mm 0.00 in0.0 mm 0.00 in0.0 mm
04:20 PM 69.5°F20.8°C 28.0°F-2.2°C 21% 0.7 mph WNW1.1 kmh WNW 3.0 mph4.8 kmh 30.24 in1024.0 mb 0.00 in0.0 mm 0.00 in0.0 mm 0.00 in0.0 mm
04:30 PM 69.3°F20.7°C 28.0°F-2.2°C 21% 0.4 mph W0.6 kmh W 2.0 mph3.2 kmh 30.24 in1024.0 mb 0.00 in0.0 mm 0.00 in0.0 mm 0.00 in0.0 mm
04:40 PM 68.8°F20.4°C 27.0°F-2.8°C 21% 0.5 mph WSW0.8 kmh WSW 2.0 mph3.2 kmh 30.24 in1024.0 mb 0.00 in0.0 mm 0.00 in0.0 mm 0.00 in0.0 mm
04:50 PM 67.7°F19.8°C 27.0°F-2.8°C 22% 0.2 mph WNW0.3 kmh WNW 2.0 mph3.2 kmh 30.24 in1024.0 mb 0.00 in0.0 mm 0.00 in0.0 mm 0.00 in0.0 mm
05:00 PM 66.9°F19.4°C 27.0°F-2.8°C 22% 0.5 mph WNW0.8 kmh WNW 2.0 mph3.2 kmh 30.24 in1024.0 mb 0.00 in0.0 mm 0.00 in0.0 mm 0.00 in0.0 mm
05:10 PM 66.8°F19.3°C 27.0°F-2.8°C 22% 0.3 mph WSW0.5 kmh WSW 2.0 mph3.2 kmh 30.24 in1024.0 mb 0.00 in0.0 mm 0.00 in0.0 mm 0.00 in0.0 mm
05:20 PM 66.4°F19.1°C 26.0°F-3.3°C 22% Calm Calm 1.0 mph1.6 kmh 30.24 in1024.0 mb 0.00 in0.0 mm 0.00 in0.0 mm 0.00 in0.0 mm
05:30 PM 65.2°F18.4°C 27.0°F-2.8°C 24% Calm Calm 1.0 mph1.6 kmh 30.24 in1024.0 mb 0.00 in0.0 mm 0.00 in0.0 mm 0.00 in0.0 mm
05:40 PM 64.0°F17.8°C 26.0°F-3.3°C 24% Calm Calm 1.0 mph1.6 kmh 30.24 in1024.0 mb 0.00 in0.0 mm 0.00 in0.0 mm 0.00 in0.0 mm
05:50 PM 62.6°F17.0°C 27.0°F-2.8°C 26% Calm Calm -- 30.24 in1024.0 mb 0.00 in0.0 mm 0.00 in0.0 mm 0.00 in0.0 mm
06:00 PM 62.2°F16.8°C 30.0°F-1.1°C 30% Calm Calm 1.0 mph1.6 kmh 30.24 in1024.0 mb 0.00 in0.0 mm 0.00 in0.0 mm 0.00 in0.0 mm
06:10 PM 60.6°F15.9°C 29.0°F-1.7°C 30% Calm Calm 1.0 mph1.6 kmh 30.24 in1024.0 mb 0.00 in0.0 mm 0.00 in0.0 mm 0.00 in0.0 mm
06:20 PM 59.9°F15.5°C 30.0°F-1.1°C 32% Calm Calm -- 30.24 in1024.0 mb 0.00 in0.0 mm 0.00 in0.0 mm 0.00 in0.0 mm
06:30 PM 58.8°F14.9°C 30.0°F-1.1°C 33% Calm Calm -- 30.24 in1024.0 mb 0.00 in0.0 mm 0.00 in0.0 mm 0.00 in0.0 mm
06:40 PM 57.9°F14.4°C 30.0°F-1.1°C 35% 0.3 mph NNE0.5 kmh NNE 2.0 mph3.2 kmh 30.24 in1024.0 mb 0.00 in0.0 mm 0.00 in0.0 mm 0.00 in0.0 mm
06:50 PM 57.1°F13.9°C 30.0°F-1.1°C 35% 0.4 mph NNE0.6 kmh NNE 2.0 mph3.2 kmh 30.24 in1024.0 mb 0.00 in0.0 mm 0.00 in0.0 mm 0.00 in0.0 mm
07:00 PM 57.4°F14.1°C 29.0°F-1.7°C 34% 1.9 mph N3.1 kmh N 3.0 mph4.8 kmh 30.24 in1024.0 mb 0.00 in0.0 mm 0.00 in0.0 mm 0.00 in0.0 mm
07:10 PM 57.4°F14.1°C 28.0°F-2.2°C 33% 1.8 mph NE2.9 kmh NE 4.0 mph6.4 kmh 30.24 in1024.0 mb 0.00 in0.0 mm 0.00 in0.0 mm 0.00 in0.0 mm
07:20 PM 57.4°F14.1°C 28.0°F-2.2°C 32% 1.0 mph N1.6 kmh N 2.0 mph3.2 kmh 30.24 in1024.0 mb 0.00 in0.0 mm 0.00 in0.0 mm 0.00 in0.0 mm
07:30 PM 56.6°F13.7°C 29.0°F-1.7°C 35% 0.4 mph N0.6 kmh N 2.0 mph3.2 kmh 30.24 in1024.0 mb 0.00 in0.0 mm 0.00 in0.0 mm 0.00 in0.0 mm
07:40 PM 55.4°F13.0°C 29.0°F-1.7°C 36% 2.4 mph NNE3.9 kmh NNE 5.0 mph8.0 kmh 30.24 in1024.0 mb 0.00 in0.0 mm 0.00 in0.0 mm 0.00 in0.0 mm
07:50 PM 56.7°F13.7°C 28.0°F-2.2°C 34% 2.5 mph NNE4.0 kmh NNE 6.0 mph9.7 kmh 30.24 in1024.0 mb 0.00 in0.0 mm 0.00 in0.0 mm 0.00 in0.0 mm
08:00 PM 56.6°F13.7°C 28.0°F-2.2°C 33% 0.3 mph NNE0.5 kmh NNE 1.0 mph1.6 kmh 30.24 in1024.0 mb 0.00 in0.0 mm 0.00 in0.0 mm 0.00 in0.0 mm
08:10 PM 55.6°F13.1°C 27.0°F-2.8°C 34% Calm Calm 1.0 mph1.6 kmh 30.24 in1024.0 mb 0.00 in0.0 mm 0.00 in0.0 mm 0.00 in0.0 mm
08:20 PM 54.6°F12.6°C 29.0°F-1.7°C 38% Calm Calm 1.0 mph1.6 kmh 30.24 in1024.0 mb 0.00 in0.0 mm 0.00 in0.0 mm 0.00 in0.0 mm
08:30 PM 53.9°F12.2°C 29.0°F-1.7°C 38% Calm Calm -- 30.24 in1024.0 mb 0.00 in0.0 mm 0.00 in0.0 mm 0.00 in0.0 mm
08:40 PM 53.4°F11.9°C 29.0°F-1.7°C 39% 0.1 mph N0.2 kmh N 3.0 mph4.8 kmh 30.24 in1024.0 mb 0.00 in0.0 mm 0.00 in0.0 mm 0.00 in0.0 mm
08:50 PM 60.3°F15.7°C 25.0°F-3.9°C 26% 3.5 mph E5.6 kmh E 11.0 mph17.7 kmh 30.24 in1024.0 mb 0.00 in0.0 mm 0.00 in0.0 mm 0.00 in0.0 mm
09:00 PM 59.8°F15.4°C 26.0°F-3.3°C 28% 0.7 mph NNE1.1 kmh NNE 3.0 mph4.8 kmh 30.25 in1024.4 mb 0.00 in0.0 mm 0.00 in0.0 mm 0.00 in0.0 mm
09:10 PM 60.2°F15.7°C 25.0°F-3.9°C 26% 1.6 mph N2.6 kmh N 10.0 mph16.1 kmh 30.25 in1024.4 mb 0.00 in0.0 mm 0.00 in0.0 mm 0.00 in0.0 mm
09:20 PM 61.4°F16.3°C 25.0°F-3.9°C 25% 5.2 mph NE8.4 kmh NE 11.0 mph17.7 kmh 30.25 in1024.4 mb 0.00 in0.0 mm 0.00 in0.0 mm 0.00 in0.0 mm
09:30 PM 62.6°F17.0°C 23.0°F-5.0°C 22% 4.2 mph NNE6.8 kmh NNE 13.0 mph20.9 kmh 30.25 in1024.4 mb 0.00 in0.0 mm 0.00 in0.0 mm 0.00 in0.0 mm
09:40 PM 63.8°F17.7°C 22.0°F-5.6°C 20% 8.9 mph N14.3 kmh N 17.0 mph27.4 kmh 30.25 in1024.4 mb 0.00 in0.0 mm 0.00 in0.0 mm 0.00 in0.0 mm
09:50 PM 63.1°F17.3°C 22.0°F-5.6°C 21% 7.0 mph NNE11.3 kmh NNE 13.0 mph20.9 kmh 30.25 in1024.4 mb 0.00 in0.0 mm 0.00 in0.0 mm 0.00 in0.0 mm
10:00 PM 61.4°F16.3°C 23.0°F-5.0°C 23% 6.8 mph NNW10.9 kmh NNW 12.0 mph19.3 kmh 30.25 in1024.4 mb 0.00 in0.0 mm 0.00 in0.0 mm 0.00 in0.0 mm
10:10 PM 60.2°F15.7°C 24.0°F-4.4°C 25% 5.5 mph N8.9 kmh N 10.0 mph16.1 kmh 30.25 in1024.4 mb 0.00 in0.0 mm 0.00 in0.0 mm 0.00 in0.0 mm
10:20 PM 59.3°F15.2°C 24.0°F-4.4°C 26% 5.6 mph N9.0 kmh N 9.0 mph14.5 kmh 30.25 in1024.4 mb 0.00 in0.0 mm 0.00 in0.0 mm 0.00 in0.0 mm
10:30 PM 58.6°F14.8°C 24.0°F-4.4°C 26% 5.1 mph N8.2 kmh N 10.0 mph16.1 kmh 30.25 in1024.4 mb 0.00 in0.0 mm 0.00 in0.0 mm 0.00 in0.0 mm
10:40 PM 59.6°F15.3°C 23.0°F-5.0°C 24% 6.7 mph N10.8 kmh N 15.0 mph24.1 kmh 30.24 in1024.0 mb 0.00 in0.0 mm 0.00 in0.0 mm 0.00 in0.0 mm
10:50 PM 60.6°F15.9°C 22.0°F-5.6°C 23% 7.9 mph N12.7 kmh N 16.0 mph25.7 kmh 30.25 in1024.4 mb 0.00 in0.0 mm 0.00 in0.0 mm 0.00 in0.0 mm
11:00 PM 59.7°F15.4°C 22.0°F-5.6°C 23% 7.6 mph NE12.2 kmh NE 15.0 mph24.1 kmh 30.25 in1024.4 mb 0.00 in0.0 mm 0.00 in0.0 mm 0.00 in0.0 mm
11:10 PM 58.8°F14.9°C 22.0°F-5.6°C 24% 7.4 mph N11.9 kmh N 14.0 mph22.5 kmh 30.24 in1024.0 mb 0.00 in0.0 mm 0.00 in0.0 mm 0.00 in0.0 mm
11:20 PM 58.6°F14.8°C 22.0°F-5.6°C 24% 7.1 mph N11.4 kmh N 12.0 mph19.3 kmh 30.24 in1024.0 mb 0.00 in0.0 mm 0.00 in0.0 mm 0.00 in0.0 mm
11:30 PM 58.9°F14.9°C 21.0°F-6.1°C 23% 7.6 mph NNE12.2 kmh NNE 17.0 mph27.4 kmh 30.24 in1024.0 mb 0.00 in0.0 mm 0.00 in0.0 mm 0.00 in0.0 mm
11:40 PM 58.3°F14.6°C 21.0°F-6.1°C 24% 7.5 mph N12.1 kmh N 14.0 mph22.5 kmh 30.25 in1024.4 mb 0.00 in0.0 mm 0.00 in0.0 mm 0.00 in0.0 mm
11:50 PM 58.5°F14.7°C 21.0°F-6.1°C 23% 8.0 mph NNW12.9 kmh NNW 15.0 mph24.1 kmh 30.25 in1024.4 mb 0.00 in0.0 mm 0.00 in0.0 mm 0.00 in0.0 mm